sensor_id;sensor_type;location;lat;lon;timestamp;P1;durP1;ratioP1;P2;durP2;ratioP2
16354;SDS011;8287;51.644;8.494;2023-06-01T00:01:31;3.28;;;2.10;;
16354;SDS011;8287;51.644;8.494;2023-06-01T00:03:58;3.10;;;1.92;;
16354;SDS011;8287;51.644;8.494;2023-06-01T00:06:24;2.85;;;2.25;;
16354;SDS011;8287;51.644;8.494;2023-06-01T00:08:54;2.75;;;2.10;;
16354;SDS011;8287;51.644;8.494;2023-06-01T00:11:21;5.53;;;2.20;;
16354;SDS011;8287;51.644;8.494;2023-06-01T00:13:48;3.25;;;2.42;;
16354;SDS011;8287;51.644;8.494;2023-06-01T00:16:16;3.78;;;2.13;;
16354;SDS011;8287;51.644;8.494;2023-06-01T00:18:43;5.60;;;2.25;;
16354;SDS011;8287;51.644;8.494;2023-06-01T00:21:09;4.63;;;2.22;;
16354;SDS011;8287;51.644;8.494;2023-06-01T00:23:37;2.90;;;2.13;;
16354;SDS011;8287;51.644;8.494;2023-06-01T00:26:07;4.47;;;2.40;;
16354;SDS011;8287;51.644;8.494;2023-06-01T00:28:34;2.55;;;2.30;;
16354;SDS011;8287;51.644;8.494;2023-06-01T00:31:01;3.60;;;2.45;;
16354;SDS011;8287;51.644;8.494;2023-06-01T00:33:27;3.67;;;2.40;;
16354;SDS011;8287;51.644;8.494;2023-06-01T00:35:54;3.00;;;2.17;;
16354;SDS011;8287;51.644;8.494;2023-06-01T00:38:20;2.50;;;2.22;;
16354;SDS011;8287;51.644;8.494;2023-06-01T00:40:47;3.40;;;2.40;;
16354;SDS011;8287;51.644;8.494;2023-06-01T00:43:16;5.03;;;2.70;;
16354;SDS011;8287;51.644;8.494;2023-06-01T00:45:43;2.75;;;2.22;;
16354;SDS011;8287;51.644;8.494;2023-06-01T00:48:10;4.63;;;2.58;;
16354;SDS011;8287;51.644;8.494;2023-06-01T00:50:37;3.17;;;2.38;;
16354;SDS011;8287;51.644;8.494;2023-06-01T00:53:05;5.47;;;2.47;;
16354;SDS011;8287;51.644;8.494;2023-06-01T00:55:34;4.53;;;2.63;;
16354;SDS011;8287;51.644;8.494;2023-06-01T00:58:01;3.58;;;2.53;;
16354;SDS011;8287;51.644;8.494;2023-06-01T01:00:30;3.78;;;2.72;;
16354;SDS011;8287;51.644;8.494;2023-06-01T01:02:56;4.22;;;2.13;;
16354;SDS011;8287;51.644;8.494;2023-06-01T01:05:25;2.75;;;2.22;;
16354;SDS011;8287;51.644;8.494;2023-06-01T01:07:55;3.28;;;2.47;;
16354;SDS011;8287;51.644;8.494;2023-06-01T01:10:29;4.97;;;2.72;;
16354;SDS011;8287;51.644;8.494;2023-06-01T01:13:00;3.75;;;2.58;;
16354;SDS011;8287;51.644;8.494;2023-06-01T01:15:41;3.53;;;2.40;;
16354;SDS011;8287;51.644;8.494;2023-06-01T01:18:15;4.13;;;2.72;;
16354;SDS011;8287;51.644;8.494;2023-06-01T01:20:46;3.65;;;2.25;;
16354;SDS011;8287;51.644;8.494;2023-06-01T01:23:24;6.68;;;2.95;;
16354;SDS011;8287;51.644;8.494;2023-06-01T01:26:14;4.82;;;2.80;;
16354;SDS011;8287;51.644;8.494;2023-06-01T01:28:51;4.25;;;2.47;;
16354;SDS011;8287;51.644;8.494;2023-06-01T01:31:22;3.30;;;2.58;;
16354;SDS011;8287;51.644;8.494;2023-06-01T01:33:50;3.80;;;2.45;;
16354;SDS011;8287;51.644;8.494;2023-06-01T01:36:18;3.60;;;2.50;;
16354;SDS011;8287;51.644;8.494;2023-06-01T01:38:47;2.70;;;2.33;;
16354;SDS011;8287;51.644;8.494;2023-06-01T01:41:13;3.40;;;2.95;;
16354;SDS011;8287;51.644;8.494;2023-06-01T01:43:40;5.05;;;3.47;;
16354;SDS011;8287;51.644;8.494;2023-06-01T01:46:14;6.45;;;3.30;;
16354;SDS011;8287;51.644;8.494;2023-06-01T01:48:48;5.28;;;3.92;;
16354;SDS011;8287;51.644;8.494;2023-06-01T01:51:25;8.82;;;4.20;;
16354;SDS011;8287;51.644;8.494;2023-06-01T01:53:55;8.65;;;4.32;;
16354;SDS011;8287;51.644;8.494;2023-06-01T01:56:24;4.75;;;3.47;;
16354;SDS011;8287;51.644;8.494;2023-06-01T01:58:51;9.63;;;5.38;;
16354;SDS011;8287;51.644;8.494;2023-06-01T02:01:21;6.65;;;4.82;;
16354;SDS011;8287;51.644;8.494;2023-06-01T02:03:57;8.98;;;5.15;;
16354;SDS011;8287;51.644;8.494;2023-06-01T02:06:24;9.23;;;5.95;;
16354;SDS011;8287;51.644;8.494;2023-06-01T02:08:51;8.65;;;5.22;;
16354;SDS011;8287;51.644;8.494;2023-06-01T02:11:18;5.35;;;4.85;;
16354;SDS011;8287;51.644;8.494;2023-06-01T02:13:44;8.38;;;5.53;;
16354;SDS011;8287;51.644;8.494;2023-06-01T02:16:11;8.50;;;5.65;;
16354;SDS011;8287;51.644;8.494;2023-06-01T02:18:39;10.55;;;5.55;;
16354;SDS011;8287;51.644;8.494;2023-06-01T02:21:06;12.52;;;5.75;;
16354;SDS011;8287;51.644;8.494;2023-06-01T02:23:33;16.33;;;6.32;;
16354;SDS011;8287;51.644;8.494;2023-06-01T02:26:00;9.80;;;6.60;;
16354;SDS011;8287;51.644;8.494;2023-06-01T02:28:28;10.63;;;6.95;;
16354;SDS011;8287;51.644;8.494;2023-06-01T02:30:54;10.30;;;6.88;;
16354;SDS011;8287;51.644;8.494;2023-06-01T02:33:21;13.68;;;7.13;;
16354;SDS011;8287;51.644;8.494;2023-06-01T02:35:51;9.43;;;6.43;;
16354;SDS011;8287;51.644;8.494;2023-06-01T02:38:17;11.57;;;7.50;;
16354;SDS011;8287;51.644;8.494;2023-06-01T02:40:44;9.38;;;6.35;;
16354;SDS011;8287;51.644;8.494;2023-06-01T02:43:11;10.32;;;6.43;;
16354;SDS011;8287;51.644;8.494;2023-06-01T02:45:37;13.23;;;7.15;;
16354;SDS011;8287;51.644;8.494;2023-06-01T02:48:04;11.80;;;6.82;;
16354;SDS011;8287;51.644;8.494;2023-06-01T02:50:31;13.75;;;6.97;;
16354;SDS011;8287;51.644;8.494;2023-06-01T02:52:59;9.93;;;7.20;;
16354;SDS011;8287;51.644;8.494;2023-06-01T02:55:26;10.18;;;6.57;;
16354;SDS011;8287;51.644;8.494;2023-06-01T02:57:53;10.93;;;6.93;;
16354;SDS011;8287;51.644;8.494;2023-06-01T03:00:19;11.70;;;7.18;;
16354;SDS011;8287;51.644;8.494;2023-06-01T03:02:47;13.45;;;7.45;;
16354;SDS011;8287;51.644;8.494;2023-06-01T03:05:14;10.75;;;7.97;;
16354;SDS011;8287;51.644;8.494;2023-06-01T03:07:42;14.50;;;8.60;;
16354;SDS011;8287;51.644;8.494;2023-06-01T03:10:11;13.80;;;8.60;;
16354;SDS011;8287;51.644;8.494;2023-06-01T03:12:38;14.93;;;9.38;;
16354;SDS011;8287;51.644;8.494;2023-06-01T03:15:05;14.32;;;7.35;;
16354;SDS011;8287;51.644;8.494;2023-06-01T03:17:32;13.00;;;8.55;;
16354;SDS011;8287;51.644;8.494;2023-06-01T03:19:59;9.45;;;7.47;;
16354;SDS011;8287;51.644;8.494;2023-06-01T03:22:27;9.18;;;6.95;;
16354;SDS011;8287;51.644;8.494;2023-06-01T03:24:54;10.07;;;6.57;;
16354;SDS011;8287;51.644;8.494;2023-06-01T03:27:22;10.13;;;6.97;;
16354;SDS011;8287;51.644;8.494;2023-06-01T03:29:48;10.00;;;7.05;;
16354;SDS011;8287;51.644;8.494;2023-06-01T03:32:15;9.35;;;7.15;;
16354;SDS011;8287;51.644;8.494;2023-06-01T03:34:42;12.43;;;7.90;;
16354;SDS011;8287;51.644;8.494;2023-06-01T03:37:08;14.48;;;8.15;;
16354;SDS011;8287;51.644;8.494;2023-06-01T03:39:35;12.15;;;8.02;;
16354;SDS011;8287;51.644;8.494;2023-06-01T03:42:01;10.52;;;7.57;;
16354;SDS011;8287;51.644;8.494;2023-06-01T03:44:29;10.60;;;7.45;;
16354;SDS011;8287;51.644;8.494;2023-06-01T03:46:56;12.07;;;7.47;;
16354;SDS011;8287;51.644;8.494;2023-06-01T03:49:24;9.95;;;7.10;;
16354;SDS011;8287;51.644;8.494;2023-06-01T03:51:50;11.93;;;7.47;;
16354;SDS011;8287;51.644;8.494;2023-06-01T03:54:17;11.90;;;7.90;;
16354;SDS011;8287;51.644;8.494;2023-06-01T03:56:44;14.02;;;8.38;;
16354;SDS011;8287;51.644;8.494;2023-06-01T03:59:10;13.20;;;8.23;;
16354;SDS011;8287;51.644;8.494;2023-06-01T04:01:38;11.93;;;8.55;;
16354;SDS011;8287;51.644;8.494;2023-06-01T04:04:05;12.38;;;7.80;;
16354;SDS011;8287;51.644;8.494;2023-06-01T04:06:33;11.77;;;8.10;;
16354;SDS011;8287;51.644;8.494;2023-06-01T04:09:00;13.10;;;7.15;;
16354;SDS011;8287;51.644;8.494;2023-06-01T04:11:31;10.70;;;7.32;;
16354;SDS011;8287;51.644;8.494;2023-06-01T04:13:58;12.50;;;7.57;;
16354;SDS011;8287;51.644;8.494;2023-06-01T04:16:25;12.63;;;7.63;;
16354;SDS011;8287;51.644;8.494;2023-06-01T04:18:53;11.27;;;7.50;;
16354;SDS011;8287;51.644;8.494;2023-06-01T04:21:20;16.50;;;8.80;;
16354;SDS011;8287;51.644;8.494;2023-06-01T04:23:47;14.73;;;8.13;;
16354;SDS011;8287;51.644;8.494;2023-06-01T04:26:14;12.15;;;8.27;;
16354;SDS011;8287;51.644;8.494;2023-06-01T04:28:40;14.90;;;8.18;;
16354;SDS011;8287;51.644;8.494;2023-06-01T04:31:09;9.18;;;6.93;;
16354;SDS011;8287;51.644;8.494;2023-06-01T04:33:42;14.25;;;8.30;;
16354;SDS011;8287;51.644;8.494;2023-06-01T04:36:12;12.30;;;7.28;;
16354;SDS011;8287;51.644;8.494;2023-06-01T04:38:39;13.27;;;8.30;;
16354;SDS011;8287;51.644;8.494;2023-06-01T04:41:07;16.20;;;9.50;;
16354;SDS011;8287;51.644;8.494;2023-06-01T04:43:35;10.20;;;7.28;;
16354;SDS011;8287;51.644;8.494;2023-06-01T04:46:03;15.95;;;8.30;;
16354;SDS011;8287;51.644;8.494;2023-06-01T04:48:30;11.68;;;8.38;;
16354;SDS011;8287;51.644;8.494;2023-06-01T04:50:57;15.10;;;8.75;;
16354;SDS011;8287;51.644;8.494;2023-06-01T04:53:26;11.82;;;8.57;;
16354;SDS011;8287;51.644;8.494;2023-06-01T04:55:53;12.15;;;8.02;;
16354;SDS011;8287;51.644;8.494;2023-06-01T04:58:21;11.25;;;7.80;;
16354;SDS011;8287;51.644;8.494;2023-06-01T05:00:48;12.75;;;7.25;;
16354;SDS011;8287;51.644;8.494;2023-06-01T05:03:15;10.25;;;6.90;;
16354;SDS011;8287;51.644;8.494;2023-06-01T05:05:42;9.43;;;7.03;;
16354;SDS011;8287;51.644;8.494;2023-06-01T05:08:10;7.95;;;6.50;;
16354;SDS011;8287;51.644;8.494;2023-06-01T05:10:38;9.32;;;6.47;;
16354;SDS011;8287;51.644;8.494;2023-06-01T05:13:05;13.65;;;6.97;;
16354;SDS011;8287;51.644;8.494;2023-06-01T05:15:31;16.30;;;10.35;;
16354;SDS011;8287;51.644;8.494;2023-06-01T05:17:58;15.93;;;8.45;;
16354;SDS011;8287;51.644;8.494;2023-06-01T05:20:24;14.55;;;8.88;;
16354;SDS011;8287;51.644;8.494;2023-06-01T05:22:51;15.63;;;8.27;;
16354;SDS011;8287;51.644;8.494;2023-06-01T05:25:18;12.30;;;8.63;;
16354;SDS011;8287;51.644;8.494;2023-06-01T05:27:46;15.65;;;7.72;;
16354;SDS011;8287;51.644;8.494;2023-06-01T05:30:12;11.32;;;7.03;;
16354;SDS011;8287;51.644;8.494;2023-06-01T05:32:39;10.73;;;7.70;;
16354;SDS011;8287;51.644;8.494;2023-06-01T05:35:06;12.98;;;8.73;;
16354;SDS011;8287;51.644;8.494;2023-06-01T05:37:33;14.70;;;7.43;;
16354;SDS011;8287;51.644;8.494;2023-06-01T05:39:59;12.23;;;7.65;;
16354;SDS011;8287;51.644;8.494;2023-06-01T05:42:27;15.35;;;9.00;;
16354;SDS011;8287;51.644;8.494;2023-06-01T05:44:55;15.13;;;7.78;;
16354;SDS011;8287;51.644;8.494;2023-06-01T05:47:21;9.70;;;7.50;;
16354;SDS011;8287;51.644;8.494;2023-06-01T05:49:48;9.02;;;7.03;;
16354;SDS011;8287;51.644;8.494;2023-06-01T05:52:16;9.10;;;6.82;;
16354;SDS011;8287;51.644;8.494;2023-06-01T05:54:42;13.38;;;8.02;;
16354;SDS011;8287;51.644;8.494;2023-06-01T05:57:09;12.27;;;7.68;;
16354;SDS011;8287;51.644;8.494;2023-06-01T05:59:35;12.32;;;7.88;;
16354;SDS011;8287;51.644;8.494;2023-06-01T06:02:04;12.10;;;7.80;;
16354;SDS011;8287;51.644;8.494;2023-06-01T06:04:31;12.45;;;7.00;;
16354;SDS011;8287;51.644;8.494;2023-06-01T06:06:57;13.68;;;7.63;;
16354;SDS011;8287;51.644;8.494;2023-06-01T06:09:24;13.68;;;6.93;;
16354;SDS011;8287;51.644;8.494;2023-06-01T06:11:50;11.32;;;7.20;;
16354;SDS011;8287;51.644;8.494;2023-06-01T06:14:17;12.05;;;7.22;;
16354;SDS011;8287;51.644;8.494;2023-06-01T06:16:44;17.10;;;9.23;;
16354;SDS011;8287;51.644;8.494;2023-06-01T06:19:12;10.80;;;7.95;;
16354;SDS011;8287;51.644;8.494;2023-06-01T06:21:41;11.60;;;6.82;;
16354;SDS011;8287;51.644;8.494;2023-06-01T06:24:08;10.73;;;7.82;;
16354;SDS011;8287;51.644;8.494;2023-06-01T06:26:34;14.93;;;7.65;;
16354;SDS011;8287;51.644;8.494;2023-06-01T06:29:01;11.68;;;7.40;;
16354;SDS011;8287;51.644;8.494;2023-06-01T06:31:27;12.20;;;7.90;;
16354;SDS011;8287;51.644;8.494;2023-06-01T06:33:54;15.27;;;7.20;;
16354;SDS011;8287;51.644;8.494;2023-06-01T06:36:22;12.98;;;7.28;;
16354;SDS011;8287;51.644;8.494;2023-06-01T06:38:49;12.43;;;7.43;;
16354;SDS011;8287;51.644;8.494;2023-06-01T06:41:15;10.93;;;7.57;;
16354;SDS011;8287;51.644;8.494;2023-06-01T06:43:42;12.18;;;8.23;;
16354;SDS011;8287;51.644;8.494;2023-06-01T06:46:09;12.88;;;7.82;;
16354;SDS011;8287;51.644;8.494;2023-06-01T06:48:35;9.80;;;7.07;;
16354;SDS011;8287;51.644;8.494;2023-06-01T06:51:02;16.33;;;8.15;;
16354;SDS011;8287;51.644;8.494;2023-06-01T06:53:30;9.70;;;7.03;;
16354;SDS011;8287;51.644;8.494;2023-06-01T06:55:58;10.45;;;7.28;;
16354;SDS011;8287;51.644;8.494;2023-06-01T06:58:25;9.25;;;6.85;;
16354;SDS011;8287;51.644;8.494;2023-06-01T07:00:51;13.18;;;8.30;;
16354;SDS011;8287;51.644;8.494;2023-06-01T07:03:18;12.82;;;8.00;;
16354;SDS011;8287;51.644;8.494;2023-06-01T07:05:45;12.32;;;7.88;;
16354;SDS011;8287;51.644;8.494;2023-06-01T07:08:12;11.50;;;7.20;;
16354;SDS011;8287;51.644;8.494;2023-06-01T07:10:41;12.43;;;7.97;;
16354;SDS011;8287;51.644;8.494;2023-06-01T07:13:07;12.32;;;7.97;;
16354;SDS011;8287;51.644;8.494;2023-06-01T07:15:34;9.90;;;7.40;;
16354;SDS011;8287;51.644;8.494;2023-06-01T07:18:00;8.68;;;6.95;;
16354;SDS011;8287;51.644;8.494;2023-06-01T07:20:27;10.45;;;8.40;;
16354;SDS011;8287;51.644;8.494;2023-06-01T07:22:54;12.82;;;8.20;;
16354;SDS011;8287;51.644;8.494;2023-06-01T07:25:20;13.73;;;9.10;;
16354;SDS011;8287;51.644;8.494;2023-06-01T07:27:48;13.23;;;9.68;;
16354;SDS011;8287;51.644;8.494;2023-06-01T07:30:15;10.48;;;8.18;;
16354;SDS011;8287;51.644;8.494;2023-06-01T07:32:42;13.25;;;8.77;;
16354;SDS011;8287;51.644;8.494;2023-06-01T07:35:09;14.35;;;9.05;;
16354;SDS011;8287;51.644;8.494;2023-06-01T07:37:37;19.15;;;9.68;;
16354;SDS011;8287;51.644;8.494;2023-06-01T07:40:04;14.85;;;9.55;;
16354;SDS011;8287;51.644;8.494;2023-06-01T07:42:31;10.82;;;8.50;;
16354;SDS011;8287;51.644;8.494;2023-06-01T07:44:59;21.33;;;11.05;;
16354;SDS011;8287;51.644;8.494;2023-06-01T07:47:27;15.55;;;9.50;;
16354;SDS011;8287;51.644;8.494;2023-06-01T07:49:54;12.52;;;10.07;;
16354;SDS011;8287;51.644;8.494;2023-06-01T07:52:21;16.95;;;9.70;;
16354;SDS011;8287;51.644;8.494;2023-06-01T07:54:47;14.90;;;10.38;;
16354;SDS011;8287;51.644;8.494;2023-06-01T07:57:14;14.15;;;10.20;;
16354;SDS011;8287;51.644;8.494;2023-06-01T07:59:41;16.15;;;10.48;;
16354;SDS011;8287;51.644;8.494;2023-06-01T08:02:09;14.70;;;9.98;;
16354;SDS011;8287;51.644;8.494;2023-06-01T08:04:38;15.63;;;10.50;;
16354;SDS011;8287;51.644;8.494;2023-06-01T08:07:05;16.75;;;11.23;;
16354;SDS011;8287;51.644;8.494;2023-06-01T08:09:33;15.60;;;11.48;;
16354;SDS011;8287;51.644;8.494;2023-06-01T08:12:02;15.57;;;11.27;;
16354;SDS011;8287;51.644;8.494;2023-06-01T08:14:29;13.80;;;10.98;;
16354;SDS011;8287;51.644;8.494;2023-06-01T08:16:57;14.45;;;10.48;;
16354;SDS011;8287;51.644;8.494;2023-06-01T08:19:25;14.55;;;10.27;;
16354;SDS011;8287;51.644;8.494;2023-06-01T08:21:52;14.65;;;11.00;;
16354;SDS011;8287;51.644;8.494;2023-06-01T08:24:20;13.93;;;11.68;;
16354;SDS011;8287;51.644;8.494;2023-06-01T08:26:50;14.52;;;11.20;;
16354;SDS011;8287;51.644;8.494;2023-06-01T08:29:17;22.13;;;11.38;;
16354;SDS011;8287;51.644;8.494;2023-06-01T08:31:43;17.23;;;10.40;;
16354;SDS011;8287;51.644;8.494;2023-06-01T08:34:10;16.48;;;11.95;;
16354;SDS011;8287;51.644;8.494;2023-06-01T08:36:38;16.98;;;11.38;;
16354;SDS011;8287;51.644;8.494;2023-06-01T08:39:19;14.60;;;11.07;;
16354;SDS011;8287;51.644;8.494;2023-06-01T08:41:48;16.67;;;11.20;;
16354;SDS011;8287;51.644;8.494;2023-06-01T08:44:26;14.45;;;11.20;;
16354;SDS011;8287;51.644;8.494;2023-06-01T08:46:54;15.23;;;11.57;;
16354;SDS011;8287;51.644;8.494;2023-06-01T08:49:21;18.92;;;12.30;;
16354;SDS011;8287;51.644;8.494;2023-06-01T08:51:51;16.00;;;11.95;;
16354;SDS011;8287;51.644;8.494;2023-06-01T08:54:22;17.20;;;11.95;;
16354;SDS011;8287;51.644;8.494;2023-06-01T08:56:50;15.30;;;11.38;;
16354;SDS011;8287;51.644;8.494;2023-06-01T08:59:16;17.17;;;12.43;;
16354;SDS011;8287;51.644;8.494;2023-06-01T09:01:43;18.65;;;12.05;;
16354;SDS011;8287;51.644;8.494;2023-06-01T09:04:12;19.33;;;12.05;;
16354;SDS011;8287;51.644;8.494;2023-06-01T09:06:38;15.50;;;11.57;;
16354;SDS011;8287;51.644;8.494;2023-06-01T09:09:09;18.55;;;11.93;;
16354;SDS011;8287;51.644;8.494;2023-06-01T09:11:37;15.70;;;11.40;;
16354;SDS011;8287;51.644;8.494;2023-06-01T09:14:12;18.17;;;10.95;;
16354;SDS011;8287;51.644;8.494;2023-06-01T09:16:46;14.02;;;10.00;;
16354;SDS011;8287;51.644;8.494;2023-06-01T09:19:13;19.95;;;11.43;;
16354;SDS011;8287;51.644;8.494;2023-06-01T09:21:41;13.13;;;9.38;;
16354;SDS011;8287;51.644;8.494;2023-06-01T09:24:23;18.27;;;12.35;;
16354;SDS011;8287;51.644;8.494;2023-06-01T09:26:50;16.52;;;11.15;;
16354;SDS011;8287;51.644;8.494;2023-06-01T09:29:18;16.27;;;10.32;;
16354;SDS011;8287;51.644;8.494;2023-06-01T09:31:45;17.60;;;11.25;;
16354;SDS011;8287;51.644;8.494;2023-06-01T09:34:12;16.42;;;10.43;;
16354;SDS011;8287;51.644;8.494;2023-06-01T09:36:43;16.38;;;10.60;;
16354;SDS011;8287;51.644;8.494;2023-06-01T09:39:10;14.55;;;10.68;;
16354;SDS011;8287;51.644;8.494;2023-06-01T09:41:50;19.25;;;10.40;;
16354;SDS011;8287;51.644;8.494;2023-06-01T09:44:22;17.67;;;9.90;;
16354;SDS011;8287;51.644;8.494;2023-06-01T09:46:50;19.80;;;12.10;;
16354;SDS011;8287;51.644;8.494;2023-06-01T09:49:18;17.08;;;10.40;;
16354;SDS011;8287;51.644;8.494;2023-06-01T09:51:45;16.30;;;10.82;;
16354;SDS011;8287;51.644;8.494;2023-06-01T09:54:21;13.27;;;9.73;;
16354;SDS011;8287;51.644;8.494;2023-06-01T09:56:53;15.90;;;11.25;;
16354;SDS011;8287;51.644;8.494;2023-06-01T09:59:20;15.30;;;10.45;;
16354;SDS011;8287;51.644;8.494;2023-06-01T10:01:49;16.63;;;10.77;;
16354;SDS011;8287;51.644;8.494;2023-06-01T10:04:18;16.73;;;9.82;;
16354;SDS011;8287;51.644;8.494;2023-06-01T10:06:49;14.50;;;10.45;;
16354;SDS011;8287;51.644;8.494;2023-06-01T10:09:20;17.35;;;11.48;;
16354;SDS011;8287;51.644;8.494;2023-06-01T10:11:48;15.55;;;10.95;;
16354;SDS011;8287;51.644;8.494;2023-06-01T10:14:19;17.60;;;11.32;;
16354;SDS011;8287;51.644;8.494;2023-06-01T10:16:47;13.48;;;9.73;;
16354;SDS011;8287;51.644;8.494;2023-06-01T10:19:14;11.93;;;9.43;;
16354;SDS011;8287;51.644;8.494;2023-06-01T10:21:41;21.40;;;11.38;;
16354;SDS011;8287;51.644;8.494;2023-06-01T10:24:10;17.52;;;10.30;;
16354;SDS011;8287;51.644;8.494;2023-06-01T10:26:39;16.27;;;10.10;;
16354;SDS011;8287;51.644;8.494;2023-06-01T10:29:10;13.40;;;8.95;;
16354;SDS011;8287;51.644;8.494;2023-06-01T10:31:39;17.15;;;9.43;;
16354;SDS011;8287;51.644;8.494;2023-06-01T10:34:08;15.10;;;9.95;;
16354;SDS011;8287;51.644;8.494;2023-06-01T10:39:39;15.13;;;9.88;;
16354;SDS011;8287;51.644;8.494;2023-06-01T10:45:06;17.85;;;10.40;;
16354;SDS011;8287;51.644;8.494;2023-06-01T10:47:47;14.85;;;10.75;;
16354;SDS011;8287;51.644;8.494;2023-06-01T10:50:15;14.73;;;9.60;;
16354;SDS011;8287;51.644;8.494;2023-06-01T10:52:42;13.32;;;10.05;;
16354;SDS011;8287;51.644;8.494;2023-06-01T10:55:19;17.45;;;10.68;;
16354;SDS011;8287;51.644;8.494;2023-06-01T11:00:47;17.20;;;10.02;;
16354;SDS011;8287;51.644;8.494;2023-06-01T11:03:16;16.95;;;10.48;;
16354;SDS011;8287;51.644;8.494;2023-06-01T11:06:22;15.93;;;10.60;;
16354;SDS011;8287;51.644;8.494;2023-06-01T11:08:52;14.02;;;9.85;;
16354;SDS011;8287;51.644;8.494;2023-06-01T11:11:20;22.65;;;12.75;;
16354;SDS011;8287;51.644;8.494;2023-06-01T11:14:06;19.35;;;10.63;;
16354;SDS011;8287;51.644;8.494;2023-06-01T11:16:36;18.92;;;11.85;;
16354;SDS011;8287;51.644;8.494;2023-06-01T11:19:05;15.48;;;10.52;;
16354;SDS011;8287;51.644;8.494;2023-06-01T11:21:34;16.33;;;10.52;;
16354;SDS011;8287;51.644;8.494;2023-06-01T11:24:05;15.35;;;9.57;;
16354;SDS011;8287;51.644;8.494;2023-06-01T11:26:35;15.77;;;10.57;;
16354;SDS011;8287;51.644;8.494;2023-06-01T11:29:05;19.55;;;11.05;;
16354;SDS011;8287;51.644;8.494;2023-06-01T11:31:38;16.48;;;10.60;;
16354;SDS011;8287;51.644;8.494;2023-06-01T11:34:09;21.27;;;9.77;;
16354;SDS011;8287;51.644;8.494;2023-06-01T11:36:37;13.82;;;9.98;;
16354;SDS011;8287;51.644;8.494;2023-06-01T11:39:05;20.75;;;9.73;;
16354;SDS011;8287;51.644;8.494;2023-06-01T11:41:35;13.65;;;10.20;;
16354;SDS011;8287;51.644;8.494;2023-06-01T11:44:02;15.05;;;8.93;;
16354;SDS011;8287;51.644;8.494;2023-06-01T11:46:29;14.82;;;10.32;;
16354;SDS011;8287;51.644;8.494;2023-06-01T11:48:59;13.32;;;9.38;;
16354;SDS011;8287;51.644;8.494;2023-06-01T11:51:32;15.80;;;10.98;;
16354;SDS011;8287;51.644;8.494;2023-06-01T11:54:00;17.58;;;10.93;;
16354;SDS011;8287;51.644;8.494;2023-06-01T11:56:27;21.50;;;15.15;;
16354;SDS011;8287;51.644;8.494;2023-06-01T11:58:56;14.63;;;9.82;;
16354;SDS011;8287;51.644;8.494;2023-06-01T12:01:24;20.00;;;11.80;;
16354;SDS011;8287;51.644;8.494;2023-06-01T12:03:51;15.20;;;12.07;;
16354;SDS011;8287;51.644;8.494;2023-06-01T12:06:18;17.95;;;10.38;;
16354;SDS011;8287;51.644;8.494;2023-06-01T12:08:47;17.35;;;11.90;;
16354;SDS011;8287;51.644;8.494;2023-06-01T12:11:17;16.23;;;10.30;;
16354;SDS011;8287;51.644;8.494;2023-06-01T12:13:44;13.95;;;10.02;;
16354;SDS011;8287;51.644;8.494;2023-06-01T12:16:12;17.38;;;10.55;;
16354;SDS011;8287;51.644;8.494;2023-06-01T12:18:40;17.67;;;10.73;;
16354;SDS011;8287;51.644;8.494;2023-06-01T12:21:10;17.67;;;11.23;;
16354;SDS011;8287;51.644;8.494;2023-06-01T12:23:37;13.90;;;10.07;;
16354;SDS011;8287;51.644;8.494;2023-06-01T12:26:05;17.73;;;11.00;;
16354;SDS011;8287;51.644;8.494;2023-06-01T12:28:49;15.85;;;10.68;;
16354;SDS011;8287;51.644;8.494;2023-06-01T12:31:17;13.95;;;10.38;;
16354;SDS011;8287;51.644;8.494;2023-06-01T12:33:45;13.27;;;9.73;;
16354;SDS011;8287;51.644;8.494;2023-06-01T12:36:27;17.42;;;11.40;;
16354;SDS011;8287;51.644;8.494;2023-06-01T12:38:56;16.45;;;11.82;;
16354;SDS011;8287;51.644;8.494;2023-06-01T12:41:25;12.65;;;9.27;;
16354;SDS011;8287;51.644;8.494;2023-06-01T12:43:52;17.05;;;11.30;;
16354;SDS011;8287;51.644;8.494;2023-06-01T12:46:19;17.83;;;12.07;;
16354;SDS011;8287;51.644;8.494;2023-06-01T12:48:46;19.70;;;10.93;;
16354;SDS011;8287;51.644;8.494;2023-06-01T12:51:14;13.52;;;9.52;;
16354;SDS011;8287;51.644;8.494;2023-06-01T12:53:41;13.73;;;10.18;;
16354;SDS011;8287;51.644;8.494;2023-06-01T12:56:09;14.35;;;10.75;;
16354;SDS011;8287;51.644;8.494;2023-06-01T12:58:37;16.90;;;10.10;;
16354;SDS011;8287;51.644;8.494;2023-06-01T13:01:04;17.77;;;11.10;;
16354;SDS011;8287;51.644;8.494;2023-06-01T13:03:30;16.10;;;10.15;;
16354;SDS011;8287;51.644;8.494;2023-06-01T13:05:57;16.80;;;10.38;;
16354;SDS011;8287;51.644;8.494;2023-06-01T13:08:24;15.80;;;10.43;;
16354;SDS011;8287;51.644;8.494;2023-06-01T13:10:51;14.18;;;9.35;;
16354;SDS011;8287;51.644;8.494;2023-06-01T13:13:18;17.40;;;10.10;;
16354;SDS011;8287;51.644;8.494;2023-06-01T13:15:46;12.98;;;10.00;;
16354;SDS011;8287;51.644;8.494;2023-06-01T13:18:13;14.73;;;8.20;;
16354;SDS011;8287;51.644;8.494;2023-06-01T13:20:40;10.93;;;7.25;;
16354;SDS011;8287;51.644;8.494;2023-06-01T13:23:07;12.55;;;8.63;;
16354;SDS011;8287;51.644;8.494;2023-06-01T13:25:34;15.93;;;8.88;;
16354;SDS011;8287;51.644;8.494;2023-06-01T13:28:01;10.93;;;7.25;;
16354;SDS011;8287;51.644;8.494;2023-06-01T13:30:28;13.98;;;9.45;;
16354;SDS011;8287;51.644;8.494;2023-06-01T13:32:57;12.32;;;8.02;;
16354;SDS011;8287;51.644;8.494;2023-06-01T13:35:23;14.55;;;7.88;;
16354;SDS011;8287;51.644;8.494;2023-06-01T13:37:51;10.35;;;7.50;;
16354;SDS011;8287;51.644;8.494;2023-06-01T13:40:18;10.48;;;7.53;;
16354;SDS011;8287;51.644;8.494;2023-06-01T13:42:48;11.35;;;7.57;;
16354;SDS011;8287;51.644;8.494;2023-06-01T13:45:15;12.75;;;6.25;;
16354;SDS011;8287;51.644;8.494;2023-06-01T13:47:42;12.38;;;6.93;;
16354;SDS011;8287;51.644;8.494;2023-06-01T13:50:13;9.88;;;7.22;;
16354;SDS011;8287;51.644;8.494;2023-06-01T13:52:39;9.60;;;6.90;;
16354;SDS011;8287;51.644;8.494;2023-06-01T13:55:07;9.80;;;5.80;;
16354;SDS011;8287;51.644;8.494;2023-06-01T13:57:34;12.20;;;6.75;;
16354;SDS011;8287;51.644;8.494;2023-06-01T14:00:02;11.63;;;6.05;;
16354;SDS011;8287;51.644;8.494;2023-06-01T14:02:30;9.07;;;5.57;;
16354;SDS011;8287;51.644;8.494;2023-06-01T14:04:56;8.48;;;5.80;;
16354;SDS011;8287;51.644;8.494;2023-06-01T14:07:24;7.55;;;5.97;;
16354;SDS011;8287;51.644;8.494;2023-06-01T14:09:51;6.78;;;5.82;;
16354;SDS011;8287;51.644;8.494;2023-06-01T14:12:17;8.23;;;5.82;;
16354;SDS011;8287;51.644;8.494;2023-06-01T14:14:44;9.45;;;6.93;;
16354;SDS011;8287;51.644;8.494;2023-06-01T14:17:11;13.20;;;5.43;;
16354;SDS011;8287;51.644;8.494;2023-06-01T14:19:37;7.28;;;4.72;;
16354;SDS011;8287;51.644;8.494;2023-06-01T14:22:04;5.72;;;5.03;;
16354;SDS011;8287;51.644;8.494;2023-06-01T14:24:32;11.10;;;5.20;;
16354;SDS011;8287;51.644;8.494;2023-06-01T14:26:59;8.20;;;5.20;;
16354;SDS011;8287;51.644;8.494;2023-06-01T14:29:26;8.63;;;5.60;;
16354;SDS011;8287;51.644;8.494;2023-06-01T14:31:52;8.57;;;5.00;;
16354;SDS011;8287;51.644;8.494;2023-06-01T14:34:19;6.30;;;5.22;;
16354;SDS011;8287;51.644;8.494;2023-06-01T14:36:45;6.25;;;5.57;;
16354;SDS011;8287;51.644;8.494;2023-06-01T14:39:12;6.50;;;4.88;;
16354;SDS011;8287;51.644;8.494;2023-06-01T14:41:40;11.10;;;5.82;;
16354;SDS011;8287;51.644;8.494;2023-06-01T14:44:07;8.68;;;5.18;;
16354;SDS011;8287;51.644;8.494;2023-06-01T14:46:33;7.85;;;5.78;;
16354;SDS011;8287;51.644;8.494;2023-06-01T14:49:00;6.38;;;5.15;;
16354;SDS011;8287;51.644;8.494;2023-06-01T14:51:29;7.80;;;5.57;;
16354;SDS011;8287;51.644;8.494;2023-06-01T14:53:57;7.25;;;5.10;;
16354;SDS011;8287;51.644;8.494;2023-06-01T14:56:23;8.32;;;4.45;;
16354;SDS011;8287;51.644;8.494;2023-06-01T14:58:52;7.95;;;5.90;;
16354;SDS011;8287;51.644;8.494;2023-06-01T15:01:19;8.05;;;6.40;;
16354;SDS011;8287;51.644;8.494;2023-06-01T15:03:46;8.18;;;6.57;;